Tropical Cyclones
[Index]
Main Index Home Page Stock Weather Photos Extreme Storms Discussion Storm News and Storm Chasing Reports Tropical Cyclones / Hurricanes / Typhoons Weather Data and Links Wild Fires / Bushfires Weather Observation Techniques Weather Picture Catalogue Tornado Pictures and Reports Stock Video Footage and DVDs for sale
Season 1972-1973 Tropical Cyclone HORTENSE Track Map
Season 1972-1973 Summaries: [BoM-AU] [JTWC-AU] [JTWC-SIO] [JTWC-SPAC] [JTWC-SH]
<<- Previous TC | JTWC 1972-1973 Season | Next TC ->>

click for intensity scale information  Lat/long Grid: Show Hide

 Date Labels: Show Hide

Joint Typhoon Warning Centre Cyclone Data

Name: HORTENSE
Number: 818 / 7316

24 Jan 1973 06:00 UTC to 05 Feb 1973 06:00 UTC

    date/time    lat    long     hPa   cat  kts
1973-01-24 06   11.9    54.6                              
1973-01-24 12   12.4    54.3                              
1973-01-24 18   12.9    54.2                              
1973-01-25 00   13.5    54.2                              
1973-01-25 06   14.1    54.1                              
1973-01-25 12   14.5    54.1                              
1973-01-25 18   14.9    54.0                              
1973-01-26 00   15.3    54.1                              
1973-01-26 06   15.6    54.1                              
1973-01-26 12   15.9    53.8                              
1973-01-26 18   16.2    53.3                              
1973-01-27 00   16.4    52.7                              
1973-01-27 06   16.5    52.1                              
1973-01-27 12   16.6    51.5                              
1973-01-27 18   16.7    51.0                              
1973-01-28 00   16.9    50.6                              
1973-01-28 06   17.0    50.2                              
1973-01-28 12   17.1    49.4                              
1973-01-28 18   17.1    48.6                              
1973-01-29 00   17.1    47.8                              
1973-01-29 06   17.3    46.9                              
1973-01-29 12   17.9    46.1                              
1973-01-29 18   18.6    45.4                              
1973-01-30 00   19.2    45.0                              
1973-01-30 06   19.9    44.8                              
1973-01-30 12   20.7    44.8                              
1973-01-30 18   21.5    45.0                              
1973-01-31 00   22.1    45.3                              
1973-01-31 06   22.7    45.8                              
1973-01-31 12   23.2    46.4                              
1973-01-31 18   23.6    47.2                              
1973-02-01 00   24.1    48.1                              
1973-02-01 06   24.3    49.2                              
1973-02-01 12   24.3    50.6                              
1973-02-01 18   24.2    52.0                              
1973-02-02 00   24.2    53.5                              
1973-02-02 06   24.1    55.0                              
1973-02-02 12   24.1    55.9                              
1973-02-02 18   24.4    56.8                              
1973-02-03 00   24.8    58.4                              
1973-02-03 06   25.2    60.1                              
1973-02-03 12   25.5    61.3                              
1973-02-03 18   25.9    62.4                              
1973-02-04 00   26.3    63.9                              
1973-02-04 06   26.8    65.4                              
1973-02-04 12   27.1    66.1                              
1973-02-04 18   27.5    66.7                              
1973-02-05 00   27.9    67.7                              
1973-02-05 06   28.4    68.8                              
Winds are 1-min average.

Tropical cyclone tracks developed by Michael Bath using data from the Joint Typhoon Warning Centre Best Tracks and Google Maps.


[Australian Severe Weather index] [Copyright Notice] [Email Contacts] [Search This Site] [Privacy Policy]
Document: tropical_cyclone_hortense.htm Updated: 18 September 2016